Time;durP1;ratioP1;P1;durP2;ratioP2;P2;SDS_P1;SDS_P2;PMS_P1;PMS_P2;Temp;Humidity;BMP_temperature;BMP_pressure;BME280_temperature;BME280_humidity;BME280_pressure;Samples;Min_cycle;Max_cycle;Signal;HPM_P1;HPM_P2
2023/07/16 00:00:28;;;;;;;18.75;16.38;;;;;;;;;;7303003;19;141344;-77
2023/07/16 00:02:55;;;;;;;20.10;16.02;;;;;;;;;;7304582;19;140530;-79
2023/07/16 00:05:22;;;;;;;18.85;15.70;;;;;;;;;;7303946;19;140752;-78
2023/07/16 00:07:49;;;;;;;18.90;15.32;;;;;;;;;;7303943;19;140631;-79
2023/07/16 00:10:16;;;;;;;17.95;14.73;;;;;;;;;;7302680;19;142185;-79
2023/07/16 00:12:43;;;;;;;15.75;13.85;;;;;;;;;;7304503;19;140536;-77
2023/07/16 00:15:10;;;;;;;18.48;14.30;;;;;;;;;;7303103;19;140882;-77
2023/07/16 00:17:38;;;;;;;17.70;14.57;;;;;;;;;;7303720;19;141290;-80
2023/07/16 00:20:05;;;;;;;17.92;13.80;;;;;;;;;;7304539;19;143579;-79
2023/07/16 00:22:33;;;;;;;17.30;13.65;;;;;;;;;;7303971;19;140721;-79
2023/07/16 00:25:00;;;;;;;16.85;13.32;;;;;;;;;;7303066;19;140432;-81
2023/07/16 00:27:28;;;;;;;15.85;13.45;;;;;;;;;;7307373;19;141382;-81
2023/07/16 00:29:55;;;;;;;16.48;13.45;;;;;;;;;;7303559;19;142483;-80
2023/07/16 00:32:22;;;;;;;14.80;12.57;;;;;;;;;;7303303;19;140703;-83
2023/07/16 00:34:49;;;;;;;17.15;12.63;;;;;;;;;;7303032;19;140399;-80
2023/07/16 00:37:16;;;;;;;13.90;12.40;;;;;;;;;;7303511;19;141821;-78
2023/07/16 00:42:46;;;;;;;14.82;11.63;;;;;;;;;;7285688;19;145069;-76
2023/07/16 00:45:14;;;;;;;14.70;12.02;;;;;;;;;;7302180;19;140336;-77
2023/07/16 00:47:42;;;;;;;15.15;11.55;;;;;;;;;;7300721;19;140572;-75
2023/07/16 00:50:11;;;;;;;14.10;11.20;;;;;;;;;;7302352;19;142066;-75
2023/07/16 00:52:38;;;;;;;13.82;11.07;;;;;;;;;;7302598;19;140553;-75
2023/07/16 00:55:06;;;;;;;14.43;10.95;;;;;;;;;;7302190;19;140771;-76
2023/07/16 00:57:33;;;;;;;12.07;10.80;;;;;;;;;;7302998;19;140526;-75
2023/07/16 01:00:00;;;;;;;12.77;10.93;;;;;;;;;;7301471;19;141895;-75
2023/07/16 01:02:27;;;;;;;13.80;10.82;;;;;;;;;;7302363;19;140607;-74
2023/07/16 01:04:54;;;;;;;13.02;10.70;;;;;;;;;;7302725;19;140624;-74
2023/07/16 01:07:24;;;;;;;12.50;10.35;;;;;;;;;;7301903;19;140980;-74
2023/07/16 01:09:51;;;;;;;12.25;10.55;;;;;;;;;;7301645;19;141954;-76
2023/07/16 01:12:20;;;;;;;12.65;10.27;;;;;;;;;;7302441;19;140510;-76
2023/07/16 01:14:48;;;;;;;13.98;10.82;;;;;;;;;;7301534;19;140932;-75
2023/07/16 01:17:15;;;;;;;12.35;10.32;;;;;;;;;;7300360;19;141730;-75
2023/07/16 01:19:42;;;;;;;14.07;10.32;;;;;;;;;;7301746;19;141876;-76
2023/07/16 01:22:18;;;;;;;12.30;9.88;;;;;;;;;;7302068;19;140492;-76
2023/07/16 01:24:45;;;;;;;12.88;9.63;;;;;;;;;;7302000;19;140773;-76
2023/07/16 01:27:21;;;;;;;11.35;9.73;;;;;;;;;;7301202;19;141671;-76
2023/07/16 01:29:51;;;;;;;14.25;10.05;;;;;;;;;;7300653;19;143232;-76
2023/07/16 01:32:20;;;;;;;11.63;9.63;;;;;;;;;;7300390;19;140585;-76
2023/07/16 01:34:48;;;;;;;12.45;9.68;;;;;;;;;;7300489;19;140489;-76
2023/07/16 01:37:15;;;;;;;10.20;8.65;;;;;;;;;;7300962;19;141098;-76
2023/07/16 01:39:42;;;;;;;10.15;9.05;;;;;;;;;;7301061;19;142588;-75
2023/07/16 01:42:09;;;;;;;11.27;9.15;;;;;;;;;;7299596;19;140496;-73
2023/07/16 01:44:36;;;;;;;9.65;8.65;;;;;;;;;;7299829;19;141096;-74
2023/07/16 01:47:04;;;;;;;11.02;8.70;;;;;;;;;;7300928;19;141389;-74
2023/07/16 01:49:31;;;;;;;10.77;9.20;;;;;;;;;;7300736;19;142579;-75
2023/07/16 01:51:59;;;;;;;9.95;8.57;;;;;;;;;;7300957;19;140552;-74
2023/07/16 01:54:26;;;;;;;9.88;8.38;;;;;;;;;;7301057;19;140361;-74
2023/07/16 01:56:53;;;;;;;10.40;8.65;;;;;;;;;;7300409;19;140837;-75
2023/07/16 01:59:20;;;;;;;10.68;8.80;;;;;;;;;;7299124;19;141988;-74
2023/07/16 02:01:47;;;;;;;9.45;8.43;;;;;;;;;;7302271;19;140527;-74
2023/07/16 02:04:14;;;;;;;10.50;8.23;;;;;;;;;;7300450;19;140523;-74
2023/07/16 02:06:41;;;;;;;8.98;8.07;;;;;;;;;;7298315;19;141030;-74
2023/07/16 02:09:09;;;;;;;8.63;7.72;;;;;;;;;;7300385;19;142170;-74
2023/07/16 02:11:36;;;;;;;9.57;7.97;;;;;;;;;;7300265;19;140681;-74
2023/07/16 02:14:03;;;;;;;8.88;7.97;;;;;;;;;;7300661;19;140703;-74
2023/07/16 02:16:30;;;;;;;10.05;7.78;;;;;;;;;;7299311;19;141180;-75
2023/07/16 02:18:58;;;;;;;9.75;7.65;;;;;;;;;;7299466;19;140659;-75
2023/07/16 02:21:25;;;;;;;9.10;7.43;;;;;;;;;;7300152;19;140727;-75
2023/07/16 02:23:52;;;;;;;8.73;7.60;;;;;;;;;;7300075;19;140509;-74
2023/07/16 02:26:19;;;;;;;10.52;7.40;;;;;;;;;;7300101;19;140511;-75
2023/07/16 02:28:46;;;;;;;9.55;7.30;;;;;;;;;;7299659;19;142123;-75
2023/07/16 02:31:13;;;;;;;10.35;8.32;;;;;;;;;;7299443;19;140470;-75
2023/07/16 02:33:40;;;;;;;9.10;7.78;;;;;;;;;;7298102;19;140648;-76
2023/07/16 02:36:07;;;;;;;8.30;7.00;;;;;;;;;;7299832;19;141971;-76
2023/07/16 02:38:34;;;;;;;8.43;7.18;;;;;;;;;;7299080;19;142640;-75
2023/07/16 02:41:01;;;;;;;8.88;6.97;;;;;;;;;;7299190;19;140823;-75
2023/07/16 02:43:28;;;;;;;8.63;6.90;;;;;;;;;;7299211;19;140862;-75
2023/07/16 02:45:55;;;;;;;8.20;6.90;;;;;;;;;;7298706;19;141684;-75
2023/07/16 02:48:22;;;;;;;8.73;7.28;;;;;;;;;;7305569;19;142170;-75
2023/07/16 02:50:49;;;;;;;7.97;6.70;;;;;;;;;;7306968;19;140794;-76
2023/07/16 02:53:16;;;;;;;9.82;7.63;;;;;;;;;;7306558;19;140580;-75
2023/07/16 02:55:45;;;;;;;8.48;6.80;;;;;;;;;;7305616;19;141230;-75
2023/07/16 02:58:12;;;;;;;8.15;6.47;;;;;;;;;;7306267;19;142379;-75
2023/07/16 03:00:39;;;;;;;7.10;6.40;;;;;;;;;;7305545;19;140475;-75
2023/07/16 03:03:06;;;;;;;8.07;6.28;;;;;;;;;;7306264;19;140555;-75
2023/07/16 03:05:33;;;;;;;7.75;6.60;;;;;;;;;;7306029;19;141055;-75
2023/07/16 03:08:00;;;;;;;7.53;6.35;;;;;;;;;;7305610;19;141833;-75
2023/07/16 03:10:28;;;;;;;7.43;6.28;;;;;;;;;;7306123;19;140664;-76
2023/07/16 03:12:55;;;;;;;7.00;5.80;;;;;;;;;;7305968;19;140679;-75
2023/07/16 03:15:22;;;;;;;8.02;6.38;;;;;;;;;;7303548;19;142107;-75
2023/07/16 03:17:49;;;;;;;7.00;5.90;;;;;;;;;;7305234;19;142100;-75
2023/07/16 03:20:16;;;;;;;7.50;6.10;;;;;;;;;;7305992;19;140774;-76
2023/07/16 03:22:43;;;;;;;7.35;6.20;;;;;;;;;;7305383;19;140575;-75
2023/07/16 03:25:10;;;;;;;8.32;5.72;;;;;;;;;;7305153;19;140555;-76
2023/07/16 03:27:37;;;;;;;7.20;5.80;;;;;;;;;;7307354;19;141667;-76
2023/07/16 03:30:05;;;;;;;7.10;5.50;;;;;;;;;;7304779;19;140602;-75
2023/07/16 03:32:32;;;;;;;6.20;5.28;;;;;;;;;;7305480;19;140525;-74
2023/07/16 03:35:15;;;;;;;6.88;5.40;;;;;;;;;;7305278;19;141482;-74
2023/07/16 03:37:43;;;;;;;6.82;5.30;;;;;;;;;;7304429;19;141971;-74
2023/07/16 03:40:14;;;;;;;7.03;4.88;;;;;;;;;;7305845;19;140381;-74
2023/07/16 03:42:41;;;;;;;5.93;5.00;;;;;;;;;;7304262;19;140699;-75
2023/07/16 03:45:09;;;;;;;6.00;4.90;;;;;;;;;;7304251;19;141482;-74
2023/07/16 03:47:37;;;;;;;7.18;4.60;;;;;;;;;;7304889;19;140893;-74
2023/07/16 03:50:04;;;;;;;6.57;4.53;;;;;;;;;;7304626;19;140753;-75
2023/07/16 03:52:31;;;;;;;6.85;4.80;;;;;;;;;;7304843;19;140696;-74
2023/07/16 03:54:58;;;;;;;7.03;4.95;;;;;;;;;;7302842;19;141941;-74
2023/07/16 03:57:27;;;;;;;5.15;4.60;;;;;;;;;;7303473;19;142752;-74
2023/07/16 03:59:54;;;;;;;6.40;5.03;;;;;;;;;;7303954;19;140481;-75
2023/07/16 04:02:21;;;;;;;6.43;4.57;;;;;;;;;;7304340;19;141960;-74
2023/07/16 04:04:48;;;;;;;5.25;4.35;;;;;;;;;;7303798;19;140769;-74
2023/07/16 04:07:15;;;;;;;5.82;4.25;;;;;;;;;;7303970;19;142747;-74
2023/07/16 04:09:42;;;;;;;4.97;4.40;;;;;;;;;;7303735;19;140944;-75
2023/07/16 04:12:09;;;;;;;6.40;4.28;;;;;;;;;;7302370;19;140837;-75
2023/07/16 04:14:36;;;;;;;4.85;4.15;;;;;;;;;;7303824;19;142147;-74
2023/07/16 04:17:04;;;;;;;6.55;4.43;;;;;;;;;;7302695;19;141478;-75
2023/07/16 04:19:31;;;;;;;5.47;4.43;;;;;;;;;;7303396;19;140732;-76
2023/07/16 04:21:58;;;;;;;5.38;4.38;;;;;;;;;;7302386;19;140681;-76
2023/07/16 04:24:26;;;;;;;5.22;4.30;;;;;;;;;;7303541;19;141374;-75
2023/07/16 04:26:54;;;;;;;7.25;4.32;;;;;;;;;;7303450;19;141476;-76
2023/07/16 04:29:21;;;;;;;6.10;4.50;;;;;;;;;;7303651;19;140646;-76
2023/07/16 04:31:48;;;;;;;4.50;3.97;;;;;;;;;;7302457;19;140881;-76
2023/07/16 04:34:15;;;;;;;6.05;4.72;;;;;;;;;;7303337;19;141048;-76
2023/07/16 04:36:42;;;;;;;5.10;3.90;;;;;;;;;;7303128;19;142068;-76
2023/07/16 04:39:09;;;;;;;6.95;4.35;;;;;;;;;;7302766;19;140383;-76
2023/07/16 04:41:37;;;;;;;5.88;4.22;;;;;;;;;;7302499;19;140750;-76
2023/07/16 04:44:04;;;;;;;5.78;4.05;;;;;;;;;;7300823;19;141005;-76
2023/07/16 04:46:31;;;;;;;5.00;4.13;;;;;;;;;;7301562;19;141244;-77
2023/07/16 04:48:58;;;;;;;5.15;3.92;;;;;;;;;;7303234;19;140671;-76
2023/07/16 04:51:26;;;;;;;6.40;4.13;;;;;;;;;;7302481;19;140455;-76
2023/07/16 04:53:53;;;;;;;6.38;4.30;;;;;;;;;;7302405;19;141829;-77
2023/07/16 04:56:20;;;;;;;7.32;4.32;;;;;;;;;;7302437;19;141891;-76
2023/07/16 04:58:47;;;;;;;6.00;4.18;;;;;;;;;;7302397;19;140475;-75
2023/07/16 05:01:14;;;;;;;6.05;4.00;;;;;;;;;;7301682;19;140534;-75
2023/07/16 05:03:41;;;;;;;4.55;4.10;;;;;;;;;;7302160;19;141860;-75
2023/07/16 05:06:08;;;;;;;6.82;3.88;;;;;;;;;;7302355;19;142617;-78
2023/07/16 05:08:36;;;;;;;5.07;3.90;;;;;;;;;;7302620;19;140619;-82
2023/07/16 05:11:03;;;;;;;5.25;3.72;;;;;;;;;;7302996;19;140641;-82
2023/07/16 05:13:30;;;;;;;4.18;3.70;;;;;;;;;;7303855;19;141834;-85
2023/07/16 05:15:57;;;;;;;4.93;3.47;;;;;;;;;;7301813;19;142346;-86
2023/07/16 05:18:24;;;;;;;5.57;3.90;;;;;;;;;;7305276;19;140924;-82
2023/07/16 05:20:51;;;;;;;5.53;3.90;;;;;;;;;;7305902;19;140766;-82
2023/07/16 05:23:19;;;;;;;5.57;3.63;;;;;;;;;;7305008;19;140604;-82
2023/07/16 05:25:47;;;;;;;3.92;3.53;;;;;;;;;;7302761;19;142564;-79
2023/07/16 05:28:15;;;;;;;4.55;3.50;;;;;;;;;;7303421;19;140808;-79
2023/07/16 05:30:42;;;;;;;4.95;3.88;;;;;;;;;;7302847;19;140582;-80
2023/07/16 05:33:12;;;;;;;3.95;3.55;;;;;;;;;;7303906;19;141069;-79
2023/07/16 05:35:40;;;;;;;4.45;3.75;;;;;;;;;;7303618;19;142611;-79
2023/07/16 05:38:07;;;;;;;5.35;4.22;;;;;;;;;;7304405;19;140443;-77
2023/07/16 05:40:34;;;;;;;4.57;3.53;;;;;;;;;;7303278;19;140535;-79
2023/07/16 05:43:02;;;;;;;5.78;3.70;;;;;;;;;;7303290;19;140658;-79
2023/07/16 05:45:29;;;;;;;5.10;3.78;;;;;;;;;;7301228;19;142572;-79
2023/07/16 05:47:59;;;;;;;4.38;3.40;;;;;;;;;;7301846;19;140448;-79
2023/07/16 05:50:26;;;;;;;6.70;3.80;;;;;;;;;;7298489;19;140613;-80
2023/07/16 05:52:53;;;;;;;5.28;3.90;;;;;;;;;;7302171;19;140693;-78
2023/07/16 05:55:20;;;;;;;5.72;4.13;;;;;;;;;;7302319;19;142892;-80
2023/07/16 05:57:47;;;;;;;5.68;4.25;;;;;;;;;;7302556;19;141620;-78
2023/07/16 06:00:15;;;;;;;5.45;4.22;;;;;;;;;;7301008;19;140620;-78
2023/07/16 06:02:42;;;;;;;6.05;4.60;;;;;;;;;;7300971;19;141641;-79
2023/07/16 06:05:09;;;;;;;5.85;4.57;;;;;;;;;;7301176;19;141895;-79
2023/07/16 06:07:36;;;;;;;5.18;4.68;;;;;;;;;;7301823;19;140556;-79
2023/07/16 06:10:04;;;;;;;8.05;5.30;;;;;;;;;;7301698;19;140670;-79
2023/07/16 06:12:31;;;;;;;5.68;4.85;;;;;;;;;;7301335;19;141899;-79
2023/07/16 06:18:01;;;;;;;5.00;4.50;;;;;;;;;;7290202;19;143261;-79
2023/07/16 06:20:28;;;;;;;5.70;4.38;;;;;;;;;;7299501;19;140829;-76
2023/07/16 06:23:02;;;;;;;6.30;4.25;;;;;;;;;;7300507;19;140534;-82
2023/07/16 06:25:46;;;;;;;5.60;4.38;;;;;;;;;;7305577;19;140740;-78
2023/07/16 06:28:14;;;;;;;6.68;4.47;;;;;;;;;;7311398;19;140449;-78
2023/07/16 06:30:42;;;;;;;6.25;4.25;;;;;;;;;;7307668;19;140804;-77
2023/07/16 06:33:10;;;;;;;5.93;3.83;;;;;;;;;;7306801;19;140523;-76
2023/07/16 06:35:38;;;;;;;6.40;4.15;;;;;;;;;;7305738;19;140790;-77
2023/07/16 06:38:05;;;;;;;6.65;4.25;;;;;;;;;;7306692;19;140731;-75
2023/07/16 06:40:32;;;;;;;5.70;4.10;;;;;;;;;;7305747;19;140673;-77
2023/07/16 06:42:59;;;;;;;6.53;4.13;;;;;;;;;;7306236;19;141060;-74
2023/07/16 06:45:26;;;;;;;5.97;3.97;;;;;;;;;;7306017;19;142985;-74
2023/07/16 06:47:59;;;;;;;7.88;4.20;;;;;;;;;;7305483;19;140387;-87
2023/07/16 06:50:26;;;;;;;7.15;4.00;;;;;;;;;;7306388;19;140702;-81
2023/07/16 06:53:23;;;;;;;5.75;3.95;;;;;;;;;;7307342;19;140508;-83
2023/07/16 06:55:51;;;;;;;5.47;3.80;;;;;;;;;;7306548;19;140741;-81
2023/07/16 06:58:18;;;;;;;5.05;3.30;;;;;;;;;;7305180;19;140897;-79
2023/07/16 07:00:45;;;;;;;8.13;3.88;;;;;;;;;;7303923;19;140669;-77
2023/07/16 07:03:13;;;;;;;6.22;3.70;;;;;;;;;;7305951;19;141423;-78
2023/07/16 07:05:41;;;;;;;5.70;3.90;;;;;;;;;;7304630;19;141067;-78
2023/07/16 07:08:09;;;;;;;6.32;3.78;;;;;;;;;;7305933;19;140665;-78
2023/07/16 07:10:37;;;;;;;4.65;3.90;;;;;;;;;;7304454;19;140679;-79
2023/07/16 07:13:05;;;;;;;5.90;3.72;;;;;;;;;;7305420;19;140622;-78
2023/07/16 07:15:32;;;;;;;5.93;3.38;;;;;;;;;;7305598;19;141913;-78
2023/07/16 07:17:59;;;;;;;6.97;3.80;;;;;;;;;;7302962;19;140823;-78
2023/07/16 07:20:26;;;;;;;5.10;3.53;;;;;;;;;;7305220;19;140465;-78
2023/07/16 07:22:53;;;;;;;4.90;3.47;;;;;;;;;;7305713;19;141629;-78
2023/07/16 07:25:20;;;;;;;5.13;3.75;;;;;;;;;;7305425;19;142167;-79
2023/07/16 07:27:47;;;;;;;5.63;3.67;;;;;;;;;;7306162;19;140705;-79
2023/07/16 07:30:15;;;;;;;4.60;3.60;;;;;;;;;;7304261;19;140751;-79
2023/07/16 07:32:42;;;;;;;7.15;3.47;;;;;;;;;;7303617;19;142082;-78
2023/07/16 07:35:09;;;;;;;5.80;3.80;;;;;;;;;;7304862;19;142334;-78
2023/07/16 07:37:36;;;;;;;4.95;3.17;;;;;;;;;;7304531;19;140481;-78
2023/07/16 07:40:04;;;;;;;4.68;3.63;;;;;;;;;;7305684;19;140407;-78
2023/07/16 07:42:31;;;;;;;4.90;3.20;;;;;;;;;;7304893;19;142118;-78
2023/07/16 07:44:58;;;;;;;4.88;3.50;;;;;;;;;;7305973;19;140724;-77
2023/07/16 07:47:25;;;;;;;4.55;3.80;;;;;;;;;;7303362;19;140592;-78
2023/07/16 07:49:52;;;;;;;5.47;3.67;;;;;;;;;;7304955;19;140586;-78
2023/07/16 07:52:20;;;;;;;5.57;3.63;;;;;;;;;;7304630;19;141547;-78
2023/07/16 07:54:48;;;;;;;4.13;3.40;;;;;;;;;;7304704;19;141854;-79
2023/07/16 07:57:15;;;;;;;4.15;3.13;;;;;;;;;;7305193;19;140652;-79
2023/07/16 07:59:44;;;;;;;5.13;3.22;;;;;;;;;;7304281;19;140699;-79
2023/07/16 08:02:11;;;;;;;5.38;3.45;;;;;;;;;;7301769;19;140993;-79
2023/07/16 08:04:38;;;;;;;6.40;3.72;;;;;;;;;;7303741;19;141912;-79
2023/07/16 08:07:06;;;;;;;4.85;3.40;;;;;;;;;;7303838;19;140614;-78
2023/07/16 08:09:33;;;;;;;5.32;3.22;;;;;;;;;;7301981;19;140713;-77
2023/07/16 08:12:00;;;;;;;4.32;3.38;;;;;;;;;;7304644;19;141720;-78
2023/07/16 08:14:28;;;;;;;3.65;2.95;;;;;;;;;;7304144;19;141641;-77
2023/07/16 08:16:55;;;;;;;6.93;3.60;;;;;;;;;;7302928;19;141237;-78
2023/07/16 08:19:28;;;;;;;4.90;3.30;;;;;;;;;;7303951;19;141061;-78
2023/07/16 08:21:56;;;;;;;6.22;3.30;;;;;;;;;;7302096;19;141181;-78
2023/07/16 08:24:24;;;;;;;7.07;3.55;;;;;;;;;;7302837;19;141896;-78
2023/07/16 08:26:51;;;;;;;6.47;3.20;;;;;;;;;;7303361;19;140983;-77
2023/07/16 08:29:19;;;;;;;8.25;3.97;;;;;;;;;;7303601;19;140788;-81
2023/07/16 08:31:46;;;;;;;8.10;4.10;;;;;;;;;;7301609;19;141022;-77
2023/07/16 08:34:13;;;;;;;7.95;3.80;;;;;;;;;;7303767;19;141989;-81
2023/07/16 08:36:43;;;;;;;10.38;4.65;;;;;;;;;;7302110;19;140591;-81
2023/07/16 08:39:11;;;;;;;6.75;4.35;;;;;;;;;;7303031;19;140680;-81
2023/07/16 08:41:38;;;;;;;9.07;4.55;;;;;;;;;;7302586;19;141550;-79
2023/07/16 08:44:06;;;;;;;8.23;4.20;;;;;;;;;;7300860;19;142413;-79
2023/07/16 08:46:33;;;;;;;7.03;4.00;;;;;;;;;;7301719;19;140738;-78
2023/07/16 08:49:01;;;;;;;8.60;3.97;;;;;;;;;;7302499;19;140638;-78
2023/07/16 08:57:34;;;;;;;9.55;4.65;;;;;;;;;;7300316;19;140888;-79
2023/07/16 09:00:02;;;;;;;8.52;4.22;;;;;;;;;;7302272;19;140421;-80
2023/07/16 09:05:38;;;;;;;11.32;4.53;;;;;;;;;;7285509;19;141725;-80
2023/07/16 09:08:06;;;;;;;10.50;4.30;;;;;;;;;;7301747;19;140409;-79
2023/07/16 09:10:34;;;;;;;6.80;4.20;;;;;;;;;;7302790;19;140586;-80
2023/07/16 09:15:53;;;;;;;11.85;4.72;;;;;;;;;;7298759;19;140630;-79
2023/07/16 09:18:21;;;;;;;11.20;4.45;;;;;;;;;;7300297;19;140521;-80
2023/07/16 09:20:56;;;;;;;7.63;4.15;;;;;;;;;;7300920;19;140580;-80
2023/07/16 09:23:25;;;;;;;6.43;4.10;;;;;;;;;;7299604;19;141564;-79
2023/07/16 09:25:54;;;;;;;12.05;4.55;;;;;;;;;;7301123;19;143215;-78
2023/07/16 09:28:21;;;;;;;10.63;4.28;;;;;;;;;;7300848;19;140957;-78
2023/07/16 09:30:48;;;;;;;8.38;4.13;;;;;;;;;;7302240;19;140620;-80
2023/07/16 09:33:19;;;;;;;9.00;4.30;;;;;;;;;;7300678;19;141218;-80
2023/07/16 09:35:50;;;;;;;7.97;4.13;;;;;;;;;;7300532;19;142060;-80
2023/07/16 09:40:58;;;;;;;7.20;4.43;;;;;;;;;;7301443;19;140388;-81
2023/07/16 09:43:26;;;;;;;11.75;5.13;;;;;;;;;;7301093;19;141829;-82
2023/07/16 09:45:53;;;;;;;9.18;4.80;;;;;;;;;;7300824;19;141743;-82
2023/07/16 09:48:23;;;;;;;14.25;6.07;;;;;;;;;;7300392;19;140526;-82
2023/07/16 09:50:53;;;;;;;12.20;5.80;;;;;;;;;;7301499;19;140455;-82
2023/07/16 09:53:21;;;;;;;10.52;5.32;;;;;;;;;;7300852;19;140739;-78
2023/07/16 09:55:52;;;;;;;11.57;4.80;;;;;;;;;;7300373;19;143424;-84
2023/07/16 10:01:20;;;;;;;;;;;;;;;;;;7301057;19;140553;-80
2023/07/16 10:03:51;;;;;;;12.18;5.18;;;;;;;;;;7298879;19;140597;-81
2023/07/16 10:06:18;;;;;;;10.63;5.55;;;;;;;;;;7300318;19;141403;-83
2023/07/16 10:08:49;;;;;;;12.20;5.80;;;;;;;;;;7299416;19;140610;-87
2023/07/16 10:11:19;;;;;;;10.85;5.18;;;;;;;;;;7301026;19;140646;-83
2023/07/16 10:13:50;;;;;;;12.82;5.93;;;;;;;;;;7301081;19;141318;-83
2023/07/16 10:16:24;;;;;;;11.20;5.47;;;;;;;;;;7299944;19;141758;-83
2023/07/16 10:18:54;;;;;;;11.52;5.53;;;;;;;;;;7299694;19;140805;-83
2023/07/16 10:21:37;;;;;;;11.90;5.82;;;;;;;;;;7298335;19;141046;-83
2023/07/16 10:24:08;;;;;;;16.88;7.13;;;;;;;;;;7300186;19;140431;-85
2023/07/16 10:26:35;;;;;;;13.67;6.87;;;;;;;;;;7298645;19;142619;-84
2023/07/16 10:29:02;;;;;;;15.38;6.93;;;;;;;;;;7298569;19;140700;-82
2023/07/16 10:31:33;;;;;;;14.57;6.78;;;;;;;;;;7299963;19;140612;-85
2023/07/16 10:37:03;;;;;;;13.63;6.72;;;;;;;;;;7287936;19;143127;-85
2023/07/16 10:39:30;;;;;;;15.30;6.88;;;;;;;;;;7300506;19;140521;-83
2023/07/16 10:41:57;;;;;;;11.68;6.47;;;;;;;;;;7300075;19;140617;-79
2023/07/16 10:44:25;;;;;;;16.67;7.80;;;;;;;;;;7298510;19;140603;-81
2023/07/16 10:46:55;;;;;;;17.63;7.90;;;;;;;;;;7298923;19;141933;-83
2023/07/16 10:49:31;;;;;;;15.75;7.25;;;;;;;;;;7299265;19;140315;-80
2023/07/16 10:52:00;;;;;;;15.93;7.45;;;;;;;;;;7298994;19;140606;-80
2023/07/16 10:54:27;;;;;;;14.15;7.45;;;;;;;;;;7299003;19;140983;-81
2023/07/16 10:56:54;;;;;;;14.85;6.53;;;;;;;;;;7299136;19;140799;-80
2023/07/16 10:59:21;;;;;;;15.18;7.20;;;;;;;;;;7297546;19;140613;-80
2023/07/16 11:01:49;;;;;;;11.15;6.68;;;;;;;;;;7298795;19;141027;-81
2023/07/16 11:04:16;;;;;;;13.20;6.50;;;;;;;;;;7298270;19;141636;-81
2023/07/16 11:06:43;;;;;;;11.18;6.88;;;;;;;;;;7298153;19;142029;-81
2023/07/16 11:09:11;;;;;;;9.80;5.78;;;;;;;;;;7303402;19;140440;-81
2023/07/16 11:11:40;;;;;;;13.23;6.47;;;;;;;;;;7305884;19;140574;-76
2023/07/16 11:14:07;;;;;;;11.15;6.13;;;;;;;;;;7303659;19;141948;-77
2023/07/16 11:16:35;;;;;;;12.23;6.50;;;;;;;;;;7304957;19;142363;-77
2023/07/16 11:19:06;;;;;;;10.60;6.38;;;;;;;;;;7304361;19;140682;-77
2023/07/16 11:21:33;;;;;;;12.88;6.20;;;;;;;;;;7306178;19;140618;-77
2023/07/16 11:24:13;;;;;;;10.65;6.38;;;;;;;;;;7305426;19;141220;-76
2023/07/16 11:26:49;;;;;;;9.13;6.13;;;;;;;;;;7304105;19;141874;-77
2023/07/16 11:29:16;;;;;;;10.32;5.95;;;;;;;;;;7305279;19;140457;-77
2023/07/16 11:31:43;;;;;;;11.13;5.78;;;;;;;;;;7305305;19;140688;-77
2023/07/16 11:34:13;;;;;;;9.57;6.32;;;;;;;;;;7304338;19;140477;-78
2023/07/16 11:36:43;;;;;;;10.60;5.60;;;;;;;;;;7304277;19;140873;-78
2023/07/16 11:39:11;;;;;;;10.15;6.35;;;;;;;;;;7305394;19;140482;-77
2023/07/16 11:41:38;;;;;;;9.77;5.72;;;;;;;;;;7304502;19;140581;-77
2023/07/16 11:44:07;;;;;;;9.02;5.50;;;;;;;;;;7304701;19;141732;-77
2023/07/16 11:46:34;;;;;;;11.50;5.72;;;;;;;;;;7304201;19;142703;-77
2023/07/16 11:49:01;;;;;;;9.82;5.50;;;;;;;;;;7303370;19;140649;-77
2023/07/16 11:51:29;;;;;;;9.82;6.13;;;;;;;;;;7304520;19;140470;-77
2023/07/16 11:53:57;;;;;;;8.95;5.45;;;;;;;;;;7304146;19;140725;-78
2023/07/16 11:56:24;;;;;;;7.90;5.38;;;;;;;;;;7304224;19;142236;-77
2023/07/16 11:58:51;;;;;;;8.40;5.35;;;;;;;;;;7304512;19;140541;-76
2023/07/16 12:01:18;;;;;;;9.35;5.25;;;;;;;;;;7302617;19;140484;-78
2023/07/16 12:03:45;;;;;;;10.05;5.97;;;;;;;;;;7302945;19;141173;-76
2023/07/16 12:06:13;;;;;;;8.13;5.32;;;;;;;;;;7303377;19;142011;-76
2023/07/16 12:08:40;;;;;;;7.50;5.18;;;;;;;;;;7303890;19;140533;-75
2023/07/16 12:11:07;;;;;;;8.05;5.45;;;;;;;;;;7304049;19;140659;-77
2023/07/16 12:13:34;;;;;;;8.98;5.38;;;;;;;;;;7303530;19;141209;-75
2023/07/16 12:16:02;;;;;;;7.90;5.53;;;;;;;;;;7303480;19;142600;-75
2023/07/16 12:18:30;;;;;;;7.43;5.60;;;;;;;;;;7301787;19;140549;-76
2023/07/16 12:20:57;;;;;;;9.65;6.03;;;;;;;;;;7302201;19;140533;-75
2023/07/16 12:23:24;;;;;;;8.30;5.75;;;;;;;;;;7302356;19;140423;-76
2023/07/16 12:25:51;;;;;;;8.00;5.05;;;;;;;;;;7303067;19;142556;-76
2023/07/16 12:28:18;;;;;;;9.60;5.57;;;;;;;;;;7303067;19;140529;-76
2023/07/16 12:30:45;;;;;;;9.60;6.00;;;;;;;;;;7303134;19;140579;-77
2023/07/16 12:33:13;;;;;;;7.63;5.45;;;;;;;;;;7302445;19;142138;-76
2023/07/16 12:35:40;;;;;;;9.43;5.15;;;;;;;;;;7303161;19;142650;-77
2023/07/16 12:38:07;;;;;;;9.18;5.32;;;;;;;;;;7302318;19;140614;-78
2023/07/16 12:40:39;;;;;;;7.93;5.00;;;;;;;;;;7303144;19;140757;-79
2023/07/16 12:43:06;;;;;;;8.63;5.40;;;;;;;;;;7302191;19;141065;-78
2023/07/16 12:45:34;;;;;;;7.63;5.05;;;;;;;;;;7303047;19;141271;-78
2023/07/16 12:48:01;;;;;;;9.25;5.35;;;;;;;;;;7304739;19;140459;-76
2023/07/16 12:50:29;;;;;;;6.88;5.00;;;;;;;;;;7302808;19;140676;-77
2023/07/16 12:52:56;;;;;;;6.88;5.30;;;;;;;;;;7302396;19;141531;-75
2023/07/16 12:55:23;;;;;;;7.68;5.13;;;;;;;;;;7302210;19;142407;-75
2023/07/16 12:57:50;;;;;;;7.45;4.80;;;;;;;;;;7300425;19;140553;-75
2023/07/16 13:00:17;;;;;;;8.73;5.53;;;;;;;;;;7302826;19;140338;-77
2023/07/16 13:02:45;;;;;;;9.50;5.30;;;;;;;;;;7301608;19;142141;-76
2023/07/16 13:05:12;;;;;;;7.72;5.18;;;;;;;;;;7300927;19;142252;-77
2023/07/16 13:07:39;;;;;;;6.95;4.97;;;;;;;;;;7301974;19;140853;-77
2023/07/16 13:10:07;;;;;;;6.22;4.82;;;;;;;;;;7302327;19;140518;-77
2023/07/16 13:12:48;;;;;;;7.28;5.35;;;;;;;;;;7301550;19;140959;-77
2023/07/16 13:15:16;;;;;;;7.05;4.90;;;;;;;;;;7301751;19;142260;-77
2023/07/16 13:17:43;;;;;;;7.70;5.25;;;;;;;;;;7302222;19;140577;-78
2023/07/16 13:20:11;;;;;;;6.60;5.15;;;;;;;;;;7301108;19;140968;-77
2023/07/16 13:22:38;;;;;;;9.25;5.47;;;;;;;;;;7301511;19;141869;-77
2023/07/16 13:25:06;;;;;;;6.20;4.88;;;;;;;;;;7300561;19;142151;-78
2023/07/16 13:27:33;;;;;;;6.30;4.95;;;;;;;;;;7301618;19;140477;-81
2023/07/16 13:30:00;;;;;;;7.10;5.28;;;;;;;;;;7301589;19;141056;-76
2023/07/16 13:32:27;;;;;;;5.93;4.78;;;;;;;;;;7300665;19;141695;-75
2023/07/16 13:34:54;;;;;;;7.63;5.32;;;;;;;;;;7299193;19;142488;-75
2023/07/16 13:37:21;;;;;;;6.13;4.78;;;;;;;;;;7300978;19;140500;-75
2023/07/16 13:39:48;;;;;;;6.53;5.10;;;;;;;;;;7301660;19;140629;-76
2023/07/16 13:42:15;;;;;;;8.20;5.00;;;;;;;;;;7301282;19;142013;-76
2023/07/16 13:44:48;;;;;;;7.55;5.10;;;;;;;;;;7300876;19;142114;-76
2023/07/16 13:47:16;;;;;;;8.55;5.47;;;;;;;;;;7300805;19;140547;-76
2023/07/16 13:49:43;;;;;;;6.32;5.10;;;;;;;;;;7300526;19;140662;-76
2023/07/16 13:52:10;;;;;;;9.15;5.22;;;;;;;;;;7299198;19;140979;-76
2023/07/16 13:54:37;;;;;;;7.95;4.90;;;;;;;;;;7299823;19;141942;-77
2023/07/16 13:57:08;;;;;;;7.90;5.15;;;;;;;;;;7301017;19;141216;-78
2023/07/16 13:59:35;;;;;;;6.53;4.88;;;;;;;;;;7300510;19;140495;-77
2023/07/16 14:02:03;;;;;;;7.05;5.22;;;;;;;;;;7300047;19;141411;-77
2023/07/16 14:04:30;;;;;;;7.18;5.50;;;;;;;;;;7298509;19;140827;-77
2023/07/16 14:06:57;;;;;;;6.95;5.22;;;;;;;;;;7300554;19;140654;-77
2023/07/16 14:09:24;;;;;;;6.18;5.00;;;;;;;;;;7299824;19;140902;-77
2023/07/16 14:11:51;;;;;;;7.60;5.32;;;;;;;;;;7298609;19;141732;-76
2023/07/16 14:14:18;;;;;;;8.68;5.35;;;;;;;;;;7299707;19;141897;-77
2023/07/16 14:16:45;;;;;;;7.95;5.28;;;;;;;;;;7300705;19;141309;-76
2023/07/16 14:19:13;;;;;;;7.43;4.97;;;;;;;;;;7299755;19;140514;-77
2023/07/16 14:21:40;;;;;;;6.57;4.82;;;;;;;;;;7299816;19;141475;-76
2023/07/16 14:24:07;;;;;;;6.43;5.10;;;;;;;;;;7299762;19;142626;-76
2023/07/16 14:26:35;;;;;;;8.10;5.20;;;;;;;;;;7299526;19;140838;-76
2023/07/16 14:29:02;;;;;;;7.38;5.07;;;;;;;;;;7299150;19;140772;-76
2023/07/16 14:31:29;;;;;;;6.32;4.97;;;;;;;;;;7299821;19;140839;-76
2023/07/16 14:33:57;;;;;;;8.00;5.00;;;;;;;;;;7297364;19;142347;-79
2023/07/16 14:36:24;;;;;;;7.57;5.20;;;;;;;;;;7298956;19;140718;-76
2023/07/16 14:38:51;;;;;;;8.40;5.28;;;;;;;;;;7300183;19;140744;-75
2023/07/16 14:41:18;;;;;;;6.82;5.50;;;;;;;;;;7297640;19;141484;-77
2023/07/16 14:43:47;;;;;;;8.05;5.45;;;;;;;;;;7304245;19;143193;-76
2023/07/16 14:46:16;;;;;;;7.45;4.80;;;;;;;;;;7306917;19;140729;-77
2023/07/16 14:48:44;;;;;;;9.13;5.35;;;;;;;;;;7305218;19;140587;-77
2023/07/16 14:51:12;;;;;;;6.07;4.97;;;;;;;;;;7306334;19;140806;-78
2023/07/16 14:53:39;;;;;;;7.32;4.65;;;;;;;;;;7305992;19;142283;-77
2023/07/16 14:56:07;;;;;;;7.82;5.28;;;;;;;;;;7308945;19;140575;-76